KHCR

Heber City Municipal - Russ McDonald Field Airport

Heber, Utah, USA
METAR KHCR 182135Z AUTO 28010KT 10SM CLR 28/02 A3022 RMK AO2
Observed Flight Rules
Aug-18 @ 21:35 UTC (20 minutes ago) Visual Flight Rules
Wind Visibility Clouds
280° at 10 knots 10 miles
  • Clear skies
Temperatures Readings
Current 28°C / 82°F
Dewpoint 2°C / 36°F
Humidity 19%
Altimeter 30.22" Hg
Pressure 1023 hPa
Elevation 1706
METAR KHCR 182135Z AUTO 28010KT 10SM CLR 28/02 A3022 RMK AO2
Observed Flight Rules
Aug-18 @ 21:35 UTC
(20 minutes ago)
VFR
Wind Visibility
280° at 10 knots 10 miles
Clouds
  • Clear skies
Temperature Dewpoint
28°C / 82°F 2°C / 36°F
Humidity Altimeter Pressure
19% 30.22" Hg 1023 hPa